sensor_id;sensor_type;location;lat;lon;timestamp;temperature;humidity
7654;DHT22;3869;48.406;10.774;2023-05-18T00:01:12;6.70;99.90
7654;DHT22;3869;48.406;10.774;2023-05-18T00:03:41;6.70;99.90
7654;DHT22;3869;48.406;10.774;2023-05-18T00:06:09;6.70;99.90
7654;DHT22;3869;48.406;10.774;2023-05-18T00:08:37;6.70;99.90
7654;DHT22;3869;48.406;10.774;2023-05-18T00:11:05;6.60;99.90
7654;DHT22;3869;48.406;10.774;2023-05-18T00:13:34;6.60;99.90
7654;DHT22;3869;48.406;10.774;2023-05-18T00:16:02;6.60;99.90
7654;DHT22;3869;48.406;10.774;2023-05-18T00:18:30;6.50;99.90
7654;DHT22;3869;48.406;10.774;2023-05-18T00:21:00;6.50;99.90
7654;DHT22;3869;48.406;10.774;2023-05-18T00:23:28;6.50;99.90
7654;DHT22;3869;48.406;10.774;2023-05-18T00:25:57;6.50;99.90
7654;DHT22;3869;48.406;10.774;2023-05-18T00:28:25;6.60;99.90
7654;DHT22;3869;48.406;10.774;2023-05-18T00:30:55;6.60;99.90
7654;DHT22;3869;48.406;10.774;2023-05-18T00:33:23;6.50;99.90
7654;DHT22;3869;48.406;10.774;2023-05-18T00:35:51;6.50;99.90
7654;DHT22;3869;48.406;10.774;2023-05-18T00:38:19;6.50;99.90
7654;DHT22;3869;48.406;10.774;2023-05-18T00:40:47;6.50;99.90
7654;DHT22;3869;48.406;10.774;2023-05-18T00:43:15;6.50;99.90
7654;DHT22;3869;48.406;10.774;2023-05-18T00:45:43;6.40;99.90
7654;DHT22;3869;48.406;10.774;2023-05-18T00:48:12;6.40;99.90
7654;DHT22;3869;48.406;10.774;2023-05-18T00:50:40;6.50;99.90
7654;DHT22;3869;48.406;10.774;2023-05-18T00:53:08;6.50;99.90
7654;DHT22;3869;48.406;10.774;2023-05-18T00:55:37;6.50;99.90
7654;DHT22;3869;48.406;10.774;2023-05-18T00:58:05;6.50;99.90
7654;DHT22;3869;48.406;10.774;2023-05-18T01:00:33;6.50;99.90
7654;DHT22;3869;48.406;10.774;2023-05-18T01:03:03;6.50;99.90
7654;DHT22;3869;48.406;10.774;2023-05-18T01:05:33;6.50;99.90
7654;DHT22;3869;48.406;10.774;2023-05-18T01:08:01;6.50;99.90
7654;DHT22;3869;48.406;10.774;2023-05-18T01:10:32;6.50;99.90
7654;DHT22;3869;48.406;10.774;2023-05-18T01:13:07;6.40;99.90
7654;DHT22;3869;48.406;10.774;2023-05-18T01:15:37;6.50;99.90
7654;DHT22;3869;48.406;10.774;2023-05-18T01:18:10;6.40;99.90
7654;DHT22;3869;48.406;10.774;2023-05-18T01:20:46;6.50;99.90
7654;DHT22;3869;48.406;10.774;2023-05-18T01:23:35;6.50;99.90
7654;DHT22;3869;48.406;10.774;2023-05-18T01:26:16;6.50;99.90
7654;DHT22;3869;48.406;10.774;2023-05-18T01:28:51;6.50;99.90
7654;DHT22;3869;48.406;10.774;2023-05-18T01:31:20;6.50;99.90
7654;DHT22;3869;48.406;10.774;2023-05-18T01:33:48;6.40;99.90
7654;DHT22;3869;48.406;10.774;2023-05-18T01:36:16;6.50;99.90
7654;DHT22;3869;48.406;10.774;2023-05-18T01:38:44;6.40;99.90
7654;DHT22;3869;48.406;10.774;2023-05-18T01:41:19;6.40;99.90
7654;DHT22;3869;48.406;10.774;2023-05-18T01:43:52;6.40;99.90
7654;DHT22;3869;48.406;10.774;2023-05-18T01:46:30;6.50;99.90
7654;DHT22;3869;48.406;10.774;2023-05-18T01:49:03;6.50;99.90
7654;DHT22;3869;48.406;10.774;2023-05-18T01:51:35;6.40;99.90
7654;DHT22;3869;48.406;10.774;2023-05-18T01:54:08;6.40;99.90
7654;DHT22;3869;48.406;10.774;2023-05-18T01:56:39;6.40;99.90
7654;DHT22;3869;48.406;10.774;2023-05-18T01:59:07;6.40;99.90
7654;DHT22;3869;48.406;10.774;2023-05-18T02:01:36;6.40;99.90
7654;DHT22;3869;48.406;10.774;2023-05-18T02:04:07;6.40;99.90
7654;DHT22;3869;48.406;10.774;2023-05-18T02:06:36;6.50;99.90
7654;DHT22;3869;48.406;10.774;2023-05-18T02:09:04;6.50;99.90
7654;DHT22;3869;48.406;10.774;2023-05-18T02:11:32;6.50;99.90
7654;DHT22;3869;48.406;10.774;2023-05-18T02:14:01;6.50;99.90
7654;DHT22;3869;48.406;10.774;2023-05-18T02:16:29;6.50;99.90
7654;DHT22;3869;48.406;10.774;2023-05-18T02:18:57;6.50;99.90
7654;DHT22;3869;48.406;10.774;2023-05-18T02:21:25;6.50;99.90
7654;DHT22;3869;48.406;10.774;2023-05-18T02:23:53;6.50;99.90
7654;DHT22;3869;48.406;10.774;2023-05-18T02:26:21;6.50;99.90
7654;DHT22;3869;48.406;10.774;2023-05-18T02:28:49;6.50;99.90
7654;DHT22;3869;48.406;10.774;2023-05-18T02:31:19;6.40;99.90
7654;DHT22;3869;48.406;10.774;2023-05-18T02:33:47;6.40;99.90
7654;DHT22;3869;48.406;10.774;2023-05-18T02:36:15;6.50;99.90
7654;DHT22;3869;48.406;10.774;2023-05-18T02:38:44;6.50;99.90
7654;DHT22;3869;48.406;10.774;2023-05-18T02:41:12;6.50;99.90
7654;DHT22;3869;48.406;10.774;2023-05-18T02:43:40;6.50;99.90
7654;DHT22;3869;48.406;10.774;2023-05-18T02:46:08;6.50;99.90
7654;DHT22;3869;48.406;10.774;2023-05-18T02:48:37;6.50;99.90
7654;DHT22;3869;48.406;10.774;2023-05-18T02:51:05;6.50;99.90
7654;DHT22;3869;48.406;10.774;2023-05-18T02:53:33;6.50;99.90
7654;DHT22;3869;48.406;10.774;2023-05-18T02:56:01;6.50;99.90
7654;DHT22;3869;48.406;10.774;2023-05-18T02:58:29;6.50;99.90
7654;DHT22;3869;48.406;10.774;2023-05-18T03:00:57;6.50;99.90
7654;DHT22;3869;48.406;10.774;2023-05-18T03:03:26;6.50;99.90
7654;DHT22;3869;48.406;10.774;2023-05-18T03:05:55;6.50;99.90
7654;DHT22;3869;48.406;10.774;2023-05-18T03:08:24;6.50;99.90
7654;DHT22;3869;48.406;10.774;2023-05-18T03:10:53;6.50;99.90
7654;DHT22;3869;48.406;10.774;2023-05-18T03:13:21;6.50;99.90
7654;DHT22;3869;48.406;10.774;2023-05-18T03:15:49;6.50;99.90
7654;DHT22;3869;48.406;10.774;2023-05-18T03:18:17;6.50;99.90
7654;DHT22;3869;48.406;10.774;2023-05-18T03:20:45;6.50;99.90
7654;DHT22;3869;48.406;10.774;2023-05-18T03:23:17;6.50;99.90
7654;DHT22;3869;48.406;10.774;2023-05-18T03:25:45;6.50;99.90
7654;DHT22;3869;48.406;10.774;2023-05-18T03:28:12;6.50;99.90
7654;DHT22;3869;48.406;10.774;2023-05-18T03:30:41;6.50;99.90
7654;DHT22;3869;48.406;10.774;2023-05-18T03:33:09;6.60;99.90
7654;DHT22;3869;48.406;10.774;2023-05-18T03:35:37;6.50;99.90
7654;DHT22;3869;48.406;10.774;2023-05-18T03:38:06;6.50;99.90
7654;DHT22;3869;48.406;10.774;2023-05-18T03:40:35;6.50;99.90
7654;DHT22;3869;48.406;10.774;2023-05-18T03:43:03;6.50;99.90
7654;DHT22;3869;48.406;10.774;2023-05-18T03:45:31;6.50;99.90
7654;DHT22;3869;48.406;10.774;2023-05-18T03:47:59;6.50;99.90
7654;DHT22;3869;48.406;10.774;2023-05-18T03:50:28;6.50;99.90
7654;DHT22;3869;48.406;10.774;2023-05-18T03:52:56;6.50;99.90
7654;DHT22;3869;48.406;10.774;2023-05-18T03:55:24;6.50;99.90
7654;DHT22;3869;48.406;10.774;2023-05-18T03:57:54;6.60;99.90
7654;DHT22;3869;48.406;10.774;2023-05-18T04:00:24;6.60;99.90
7654;DHT22;3869;48.406;10.774;2023-05-18T04:02:52;6.60;99.90
7654;DHT22;3869;48.406;10.774;2023-05-18T04:05:21;6.60;99.90
7654;DHT22;3869;48.406;10.774;2023-05-18T04:07:48;6.60;99.90
7654;DHT22;3869;48.406;10.774;2023-05-18T04:10:16;6.60;99.90
7654;DHT22;3869;48.406;10.774;2023-05-18T04:12:45;6.60;99.90
7654;DHT22;3869;48.406;10.774;2023-05-18T04:15:14;6.60;99.90
7654;DHT22;3869;48.406;10.774;2023-05-18T04:17:42;6.60;99.90
7654;DHT22;3869;48.406;10.774;2023-05-18T04:20:12;6.60;99.90
7654;DHT22;3869;48.406;10.774;2023-05-18T04:22:41;6.60;99.90
7654;DHT22;3869;48.406;10.774;2023-05-18T04:25:14;6.70;99.90
7654;DHT22;3869;48.406;10.774;2023-05-18T04:27:43;6.70;99.90
7654;DHT22;3869;48.406;10.774;2023-05-18T04:30:14;6.70;99.90
7654;DHT22;3869;48.406;10.774;2023-05-18T04:32:44;6.70;99.90
7654;DHT22;3869;48.406;10.774;2023-05-18T04:35:12;6.80;99.90
7654;DHT22;3869;48.406;10.774;2023-05-18T04:37:41;6.80;99.90
7654;DHT22;3869;48.406;10.774;2023-05-18T04:40:09;6.80;99.90
7654;DHT22;3869;48.406;10.774;2023-05-18T04:42:39;6.90;99.90
7654;DHT22;3869;48.406;10.774;2023-05-18T04:45:13;6.90;99.90
7654;DHT22;3869;48.406;10.774;2023-05-18T04:47:43;7.00;99.90
7654;DHT22;3869;48.406;10.774;2023-05-18T04:50:16;7.00;99.90
7654;DHT22;3869;48.406;10.774;2023-05-18T04:52:46;7.00;99.90
7654;DHT22;3869;48.406;10.774;2023-05-18T04:55:15;7.10;99.90
7654;DHT22;3869;48.406;10.774;2023-05-18T04:57:48;7.10;99.90
7654;DHT22;3869;48.406;10.774;2023-05-18T05:00:21;7.10;99.90
7654;DHT22;3869;48.406;10.774;2023-05-18T05:02:50;7.10;99.90
7654;DHT22;3869;48.406;10.774;2023-05-18T05:05:19;7.20;99.90
7654;DHT22;3869;48.406;10.774;2023-05-18T05:07:48;7.30;99.90
7654;DHT22;3869;48.406;10.774;2023-05-18T05:10:16;7.30;99.90
7654;DHT22;3869;48.406;10.774;2023-05-18T05:12:44;7.40;99.90
7654;DHT22;3869;48.406;10.774;2023-05-18T05:15:15;7.40;99.90
7654;DHT22;3869;48.406;10.774;2023-05-18T05:17:45;7.40;99.90
7654;DHT22;3869;48.406;10.774;2023-05-18T05:20:13;7.60;99.90
7654;DHT22;3869;48.406;10.774;2023-05-18T05:22:41;7.70;99.90
7654;DHT22;3869;48.406;10.774;2023-05-18T05:25:10;7.70;99.90
7654;DHT22;3869;48.406;10.774;2023-05-18T05:27:38;7.70;99.90
7654;DHT22;3869;48.406;10.774;2023-05-18T05:30:08;7.80;99.90
7654;DHT22;3869;48.406;10.774;2023-05-18T05:32:36;7.90;99.90
7654;DHT22;3869;48.406;10.774;2023-05-18T05:35:06;8.00;99.90
7654;DHT22;3869;48.406;10.774;2023-05-18T05:37:34;8.10;99.90
7654;DHT22;3869;48.406;10.774;2023-05-18T05:40:02;8.10;99.90
7654;DHT22;3869;48.406;10.774;2023-05-18T05:42:32;8.20;99.90
7654;DHT22;3869;48.406;10.774;2023-05-18T05:45:00;8.30;99.90
7654;DHT22;3869;48.406;10.774;2023-05-18T05:47:28;8.30;99.90
7654;DHT22;3869;48.406;10.774;2023-05-18T05:49:56;8.40;99.90
7654;DHT22;3869;48.406;10.774;2023-05-18T05:52:25;8.40;99.90
7654;DHT22;3869;48.406;10.774;2023-05-18T05:54:55;8.50;99.90
7654;DHT22;3869;48.406;10.774;2023-05-18T05:57:23;8.50;99.90
7654;DHT22;3869;48.406;10.774;2023-05-18T05:59:51;8.60;99.90
7654;DHT22;3869;48.406;10.774;2023-05-18T06:02:19;8.60;99.90
7654;DHT22;3869;48.406;10.774;2023-05-18T06:04:47;8.70;99.90
7654;DHT22;3869;48.406;10.774;2023-05-18T06:07:15;8.80;99.90
7654;DHT22;3869;48.406;10.774;2023-05-18T06:09:45;8.90;99.90
7654;DHT22;3869;48.406;10.774;2023-05-18T06:12:13;9.00;99.90
7654;DHT22;3869;48.406;10.774;2023-05-18T06:14:41;9.10;99.90
7654;DHT22;3869;48.406;10.774;2023-05-18T06:17:09;9.20;99.90
7654;DHT22;3869;48.406;10.774;2023-05-18T06:19:37;9.30;99.90
7654;DHT22;3869;48.406;10.774;2023-05-18T06:22:04;9.40;99.90
7654;DHT22;3869;48.406;10.774;2023-05-18T06:24:32;9.50;99.90
7654;DHT22;3869;48.406;10.774;2023-05-18T06:27:02;9.60;99.90
7654;DHT22;3869;48.406;10.774;2023-05-18T06:29:30;9.70;99.90
7654;DHT22;3869;48.406;10.774;2023-05-18T06:31:58;9.70;99.90
7654;DHT22;3869;48.406;10.774;2023-05-18T06:34:26;9.80;99.90
7654;DHT22;3869;48.406;10.774;2023-05-18T06:36:54;9.90;99.90
7654;DHT22;3869;48.406;10.774;2023-05-18T06:39:22;10.00;99.90
7654;DHT22;3869;48.406;10.774;2023-05-18T06:41:50;10.10;99.90
7654;DHT22;3869;48.406;10.774;2023-05-18T06:44:19;10.20;99.90
7654;DHT22;3869;48.406;10.774;2023-05-18T06:46:47;10.20;99.90
7654;DHT22;3869;48.406;10.774;2023-05-18T06:49:15;10.20;99.90
7654;DHT22;3869;48.406;10.774;2023-05-18T06:51:43;10.40;99.90
7654;DHT22;3869;48.406;10.774;2023-05-18T06:54:12;10.40;99.90
7654;DHT22;3869;48.406;10.774;2023-05-18T06:56:40;10.50;99.90
7654;DHT22;3869;48.406;10.774;2023-05-18T06:59:08;10.60;99.90
7654;DHT22;3869;48.406;10.774;2023-05-18T07:01:37;10.70;99.90
7654;DHT22;3869;48.406;10.774;2023-05-18T07:04:05;10.80;99.90
7654;DHT22;3869;48.406;10.774;2023-05-18T07:06:33;10.80;99.90
7654;DHT22;3869;48.406;10.774;2023-05-18T07:09:03;10.90;99.90
7654;DHT22;3869;48.406;10.774;2023-05-18T07:11:31;11.00;99.90
7654;DHT22;3869;48.406;10.774;2023-05-18T07:13:59;11.00;99.90
7654;DHT22;3869;48.406;10.774;2023-05-18T07:16:27;11.10;99.90
7654;DHT22;3869;48.406;10.774;2023-05-18T07:18:57;11.00;99.90
7654;DHT22;3869;48.406;10.774;2023-05-18T07:21:25;11.10;99.90
7654;DHT22;3869;48.406;10.774;2023-05-18T07:23:53;11.10;99.90
7654;DHT22;3869;48.406;10.774;2023-05-18T07:26:21;11.20;99.90
7654;DHT22;3869;48.406;10.774;2023-05-18T07:28:49;11.20;99.90
7654;DHT22;3869;48.406;10.774;2023-05-18T07:31:18;11.20;99.90
7654;DHT22;3869;48.406;10.774;2023-05-18T07:33:47;11.20;99.90
7654;DHT22;3869;48.406;10.774;2023-05-18T07:36:16;11.30;99.90
7654;DHT22;3869;48.406;10.774;2023-05-18T07:38:44;11.20;99.90
7654;DHT22;3869;48.406;10.774;2023-05-18T07:41:13;11.20;99.90
7654;DHT22;3869;48.406;10.774;2023-05-18T07:43:41;11.20;99.90
7654;DHT22;3869;48.406;10.774;2023-05-18T07:46:09;11.30;99.90
7654;DHT22;3869;48.406;10.774;2023-05-18T07:48:37;11.50;99.90
7654;DHT22;3869;48.406;10.774;2023-05-18T07:51:06;11.50;99.90
7654;DHT22;3869;48.406;10.774;2023-05-18T07:53:36;11.50;99.90
7654;DHT22;3869;48.406;10.774;2023-05-18T07:56:05;11.60;99.90
7654;DHT22;3869;48.406;10.774;2023-05-18T07:58:34;11.60;99.90
7654;DHT22;3869;48.406;10.774;2023-05-18T08:01:02;11.60;99.90
7654;DHT22;3869;48.406;10.774;2023-05-18T08:03:30;11.70;99.90
7654;DHT22;3869;48.406;10.774;2023-05-18T08:05:59;11.60;99.90
7654;DHT22;3869;48.406;10.774;2023-05-18T08:08:26;11.50;99.90
7654;DHT22;3869;48.406;10.774;2023-05-18T08:10:57;11.50;99.90
7654;DHT22;3869;48.406;10.774;2023-05-18T08:13:25;11.50;99.90
7654;DHT22;3869;48.406;10.774;2023-05-18T08:15:54;11.50;99.90
7654;DHT22;3869;48.406;10.774;2023-05-18T08:18:37;11.70;99.90
7654;DHT22;3869;48.406;10.774;2023-05-18T08:21:06;11.80;99.90
7654;DHT22;3869;48.406;10.774;2023-05-18T08:23:36;12.00;99.90
7654;DHT22;3869;48.406;10.774;2023-05-18T08:26:05;12.20;99.90
7654;DHT22;3869;48.406;10.774;2023-05-18T08:28:35;12.30;99.90
7654;DHT22;3869;48.406;10.774;2023-05-18T08:31:03;12.40;99.90
7654;DHT22;3869;48.406;10.774;2023-05-18T08:33:31;12.50;99.90
7654;DHT22;3869;48.406;10.774;2023-05-18T08:35:59;12.70;99.90
7654;DHT22;3869;48.406;10.774;2023-05-18T08:38:27;12.70;99.90
7654;DHT22;3869;48.406;10.774;2023-05-18T08:41:00;12.80;99.90
7654;DHT22;3869;48.406;10.774;2023-05-18T08:43:32;12.90;99.90
7654;DHT22;3869;48.406;10.774;2023-05-18T08:46:05;12.90;99.90
7654;DHT22;3869;48.406;10.774;2023-05-18T08:48:35;12.90;99.90
7654;DHT22;3869;48.406;10.774;2023-05-18T08:51:05;12.90;99.90
7654;DHT22;3869;48.406;10.774;2023-05-18T08:53:36;12.80;99.90
7654;DHT22;3869;48.406;10.774;2023-05-18T08:56:04;12.70;99.90
7654;DHT22;3869;48.406;10.774;2023-05-18T08:58:36;12.80;99.90
7654;DHT22;3869;48.406;10.774;2023-05-18T09:01:10;12.80;99.90
7654;DHT22;3869;48.406;10.774;2023-05-18T09:03:39;12.70;99.90
7654;DHT22;3869;48.406;10.774;2023-05-18T09:06:07;12.60;99.90
7654;DHT22;3869;48.406;10.774;2023-05-18T09:08:36;12.70;99.90
7654;DHT22;3869;48.406;10.774;2023-05-18T09:11:05;12.80;99.90
7654;DHT22;3869;48.406;10.774;2023-05-18T09:13:37;12.90;99.90
7654;DHT22;3869;48.406;10.774;2023-05-18T09:16:05;13.00;99.90
7654;DHT22;3869;48.406;10.774;2023-05-18T09:18:34;13.20;99.90
7654;DHT22;3869;48.406;10.774;2023-05-18T09:21:02;13.20;99.90
7654;DHT22;3869;48.406;10.774;2023-05-18T09:23:30;13.30;99.90
7654;DHT22;3869;48.406;10.774;2023-05-18T09:25:59;13.40;99.90
7654;DHT22;3869;48.406;10.774;2023-05-18T09:28:32;13.50;99.90
7654;DHT22;3869;48.406;10.774;2023-05-18T09:31:04;13.50;99.90
7654;DHT22;3869;48.406;10.774;2023-05-18T09:33:36;13.60;99.90
7654;DHT22;3869;48.406;10.774;2023-05-18T09:36:05;13.70;99.90
7654;DHT22;3869;48.406;10.774;2023-05-18T09:38:36;13.80;99.90
7654;DHT22;3869;48.406;10.774;2023-05-18T09:41:08;13.80;99.90
7654;DHT22;3869;48.406;10.774;2023-05-18T09:43:36;13.80;99.90
7654;DHT22;3869;48.406;10.774;2023-05-18T09:46:07;13.80;99.90
7654;DHT22;3869;48.406;10.774;2023-05-18T09:48:35;13.90;99.90
7654;DHT22;3869;48.406;10.774;2023-05-18T09:51:04;14.00;99.90
7654;DHT22;3869;48.406;10.774;2023-05-18T09:53:34;13.90;99.90
7654;DHT22;3869;48.406;10.774;2023-05-18T09:56:03;13.80;99.90
7654;DHT22;3869;48.406;10.774;2023-05-18T09:58:33;13.70;99.90
7654;DHT22;3869;48.406;10.774;2023-05-18T10:01:02;13.70;99.90
7654;DHT22;3869;48.406;10.774;2023-05-18T10:03:33;13.70;99.90
7654;DHT22;3869;48.406;10.774;2023-05-18T10:06:03;13.80;99.90
7654;DHT22;3869;48.406;10.774;2023-05-18T10:08:32;14.00;99.90
7654;DHT22;3869;48.406;10.774;2023-05-18T10:11:01;14.00;99.90
7654;DHT22;3869;48.406;10.774;2023-05-18T10:13:30;14.00;99.90
7654;DHT22;3869;48.406;10.774;2023-05-18T10:16:00;13.90;99.90
7654;DHT22;3869;48.406;10.774;2023-05-18T10:18:30;13.90;99.90
7654;DHT22;3869;48.406;10.774;2023-05-18T10:21:01;13.90;99.90
7654;DHT22;3869;48.406;10.774;2023-05-18T10:23:32;13.90;99.90
7654;DHT22;3869;48.406;10.774;2023-05-18T10:26:03;14.00;99.90
7654;DHT22;3869;48.406;10.774;2023-05-18T10:28:37;14.00;99.90
7654;DHT22;3869;48.406;10.774;2023-05-18T10:31:07;13.80;99.90
7654;DHT22;3869;48.406;10.774;2023-05-18T10:33:36;13.80;99.90
7654;DHT22;3869;48.406;10.774;2023-05-18T10:36:06;13.80;99.90
7654;DHT22;3869;48.406;10.774;2023-05-18T10:38:36;13.70;99.90
7654;DHT22;3869;48.406;10.774;2023-05-18T10:41:06;13.70;99.90
7654;DHT22;3869;48.406;10.774;2023-05-18T10:43:36;13.70;99.70
7654;DHT22;3869;48.406;10.774;2023-05-18T10:46:05;13.70;99.90
7654;DHT22;3869;48.406;10.774;2023-05-18T10:48:38;13.70;99.90
7654;DHT22;3869;48.406;10.774;2023-05-18T10:51:08;13.80;99.90
7654;DHT22;3869;48.406;10.774;2023-05-18T10:53:37;13.80;99.90
7654;DHT22;3869;48.406;10.774;2023-05-18T10:56:09;13.80;99.90
7654;DHT22;3869;48.406;10.774;2023-05-18T10:58:37;13.90;99.90
7654;DHT22;3869;48.406;10.774;2023-05-18T11:01:08;13.80;99.90
7654;DHT22;3869;48.406;10.774;2023-05-18T11:03:38;13.80;99.90
7654;DHT22;3869;48.406;10.774;2023-05-18T11:06:09;13.90;99.90
7654;DHT22;3869;48.406;10.774;2023-05-18T11:08:46;14.10;99.90
7654;DHT22;3869;48.406;10.774;2023-05-18T11:11:15;14.30;99.90
7654;DHT22;3869;48.406;10.774;2023-05-18T11:13:48;14.50;99.90
7654;DHT22;3869;48.406;10.774;2023-05-18T11:16:17;14.60;99.90
7654;DHT22;3869;48.406;10.774;2023-05-18T11:18:48;14.70;99.90
7654;DHT22;3869;48.406;10.774;2023-05-18T11:21:51;14.60;99.70
7654;DHT22;3869;48.406;10.774;2023-05-18T11:24:23;14.60;99.90
7654;DHT22;3869;48.406;10.774;2023-05-18T11:26:53;14.50;99.80
7654;DHT22;3869;48.406;10.774;2023-05-18T11:29:23;14.40;99.70
7654;DHT22;3869;48.406;10.774;2023-05-18T11:31:53;14.30;99.90
7654;DHT22;3869;48.406;10.774;2023-05-18T11:34:39;14.20;99.90
7654;DHT22;3869;48.406;10.774;2023-05-18T11:37:13;14.20;99.90
7654;DHT22;3869;48.406;10.774;2023-05-18T11:39:41;14.10;99.70
7654;DHT22;3869;48.406;10.774;2023-05-18T11:42:31;14.00;99.90
7654;DHT22;3869;48.406;10.774;2023-05-18T11:45:05;13.90;99.80
7654;DHT22;3869;48.406;10.774;2023-05-18T11:47:33;13.90;99.90
7654;DHT22;3869;48.406;10.774;2023-05-18T11:50:06;13.90;99.90
7654;DHT22;3869;48.406;10.774;2023-05-18T11:52:44;13.90;99.90
7654;DHT22;3869;48.406;10.774;2023-05-18T11:55:13;14.00;99.90
7654;DHT22;3869;48.406;10.774;2023-05-18T11:57:42;14.00;99.90
7654;DHT22;3869;48.406;10.774;2023-05-18T12:00:11;13.90;99.90
7654;DHT22;3869;48.406;10.774;2023-05-18T12:02:42;13.90;99.90
7654;DHT22;3869;48.406;10.774;2023-05-18T12:05:11;13.80;99.90
7654;DHT22;3869;48.406;10.774;2023-05-18T12:07:41;13.90;99.90
7654;DHT22;3869;48.406;10.774;2023-05-18T12:10:12;13.80;99.90
7654;DHT22;3869;48.406;10.774;2023-05-18T12:12:42;13.80;99.90
7654;DHT22;3869;48.406;10.774;2023-05-18T12:15:11;13.80;99.90
7654;DHT22;3869;48.406;10.774;2023-05-18T12:17:44;13.80;99.90
7654;DHT22;3869;48.406;10.774;2023-05-18T12:20:13;13.90;99.90
7654;DHT22;3869;48.406;10.774;2023-05-18T12:22:45;13.90;99.90
7654;DHT22;3869;48.406;10.774;2023-05-18T12:25:15;13.90;99.90
7654;DHT22;3869;48.406;10.774;2023-05-18T12:27:44;14.00;99.90
7654;DHT22;3869;48.406;10.774;2023-05-18T12:30:16;14.10;99.90
7654;DHT22;3869;48.406;10.774;2023-05-18T12:32:46;14.10;99.90
7654;DHT22;3869;48.406;10.774;2023-05-18T12:35:14;14.20;99.90
7654;DHT22;3869;48.406;10.774;2023-05-18T12:37:44;14.30;99.90
7654;DHT22;3869;48.406;10.774;2023-05-18T12:40:14;14.40;99.90
7654;DHT22;3869;48.406;10.774;2023-05-18T12:42:50;14.40;99.90
7654;DHT22;3869;48.406;10.774;2023-05-18T12:45:21;14.50;99.90
7654;DHT22;3869;48.406;10.774;2023-05-18T12:47:49;14.40;99.90
7654;DHT22;3869;48.406;10.774;2023-05-18T12:50:21;14.20;99.80
7654;DHT22;3869;48.406;10.774;2023-05-18T12:52:51;14.10;99.90
7654;DHT22;3869;48.406;10.774;2023-05-18T12:55:19;14.20;99.90
7654;DHT22;3869;48.406;10.774;2023-05-18T12:57:58;14.20;99.90
7654;DHT22;3869;48.406;10.774;2023-05-18T13:00:26;14.30;99.90
7654;DHT22;3869;48.406;10.774;2023-05-18T13:03:04;14.30;99.90
7654;DHT22;3869;48.406;10.774;2023-05-18T13:05:33;14.30;99.90
7654;DHT22;3869;48.406;10.774;2023-05-18T13:08:02;14.50;99.90
7654;DHT22;3869;48.406;10.774;2023-05-18T13:10:30;14.70;99.90
7654;DHT22;3869;48.406;10.774;2023-05-18T13:12:59;14.90;99.90
7654;DHT22;3869;48.406;10.774;2023-05-18T13:15:33;14.90;99.70
7654;DHT22;3869;48.406;10.774;2023-05-18T13:18:02;14.80;98.90
7654;DHT22;3869;48.406;10.774;2023-05-18T13:20:33;14.70;99.40
7654;DHT22;3869;48.406;10.774;2023-05-18T13:23:06;14.50;99.50
7654;DHT22;3869;48.406;10.774;2023-05-18T13:25:35;14.30;99.40
7654;DHT22;3869;48.406;10.774;2023-05-18T13:28:03;14.30;99.90
7654;DHT22;3869;48.406;10.774;2023-05-18T13:30:32;14.40;99.90
7654;DHT22;3869;48.406;10.774;2023-05-18T13:33:00;14.50;99.90
7654;DHT22;3869;48.406;10.774;2023-05-18T13:35:28;14.50;99.90
7654;DHT22;3869;48.406;10.774;2023-05-18T13:37:56;14.60;99.90
7654;DHT22;3869;48.406;10.774;2023-05-18T13:40:26;14.70;99.90
7654;DHT22;3869;48.406;10.774;2023-05-18T13:42:55;14.70;99.90
7654;DHT22;3869;48.406;10.774;2023-05-18T13:45:23;14.80;99.60
7654;DHT22;3869;48.406;10.774;2023-05-18T13:47:51;15.00;99.80
7654;DHT22;3869;48.406;10.774;2023-05-18T13:50:19;15.10;99.60
7654;DHT22;3869;48.406;10.774;2023-05-18T13:52:48;15.20;99.00
7654;DHT22;3869;48.406;10.774;2023-05-18T13:55:16;15.30;98.70
7654;DHT22;3869;48.406;10.774;2023-05-18T13:57:46;15.40;98.70
7654;DHT22;3869;48.406;10.774;2023-05-18T14:00:14;15.30;98.10
7654;DHT22;3869;48.406;10.774;2023-05-18T14:02:43;15.20;98.00
7654;DHT22;3869;48.406;10.774;2023-05-18T14:05:12;15.10;98.30
7654;DHT22;3869;48.406;10.774;2023-05-18T14:07:41;15.00;98.50
7654;DHT22;3869;48.406;10.774;2023-05-18T14:10:11;15.00;98.70
7654;DHT22;3869;48.406;10.774;2023-05-18T14:12:39;14.80;98.60
7654;DHT22;3869;48.406;10.774;2023-05-18T14:15:11;14.70;98.30
7654;DHT22;3869;48.406;10.774;2023-05-18T14:17:40;14.60;98.40
7654;DHT22;3869;48.406;10.774;2023-05-18T14:20:09;14.50;98.70
7654;DHT22;3869;48.406;10.774;2023-05-18T14:22:37;14.60;99.50
7654;DHT22;3869;48.406;10.774;2023-05-18T14:25:06;14.60;99.40
7654;DHT22;3869;48.406;10.774;2023-05-18T14:27:34;14.70;99.00
7654;DHT22;3869;48.406;10.774;2023-05-18T14:30:03;14.70;99.40
7654;DHT22;3869;48.406;10.774;2023-05-18T14:32:33;14.80;99.80
7654;DHT22;3869;48.406;10.774;2023-05-18T14:35:01;15.00;99.70
7654;DHT22;3869;48.406;10.774;2023-05-18T14:37:29;15.10;99.10
7654;DHT22;3869;48.406;10.774;2023-05-18T14:39:58;15.00;98.40
7654;DHT22;3869;48.406;10.774;2023-05-18T14:42:26;14.90;98.60
7654;DHT22;3869;48.406;10.774;2023-05-18T14:44:54;14.80;99.00
7654;DHT22;3869;48.406;10.774;2023-05-18T14:47:22;14.70;98.70
7654;DHT22;3869;48.406;10.774;2023-05-18T14:49:51;14.70;99.20
7654;DHT22;3869;48.406;10.774;2023-05-18T14:52:19;14.70;99.50
7654;DHT22;3869;48.406;10.774;2023-05-18T14:54:47;14.70;99.60
7654;DHT22;3869;48.406;10.774;2023-05-18T14:57:15;14.70;99.50
7654;DHT22;3869;48.406;10.774;2023-05-18T14:59:43;14.70;99.80
7654;DHT22;3869;48.406;10.774;2023-05-18T15:02:11;14.70;99.70
7654;DHT22;3869;48.406;10.774;2023-05-18T15:04:39;14.80;99.70
7654;DHT22;3869;48.406;10.774;2023-05-18T15:07:09;14.80;99.70
7654;DHT22;3869;48.406;10.774;2023-05-18T15:09:37;14.80;99.20
7654;DHT22;3869;48.406;10.774;2023-05-18T15:12:05;14.90;99.60
7654;DHT22;3869;48.406;10.774;2023-05-18T15:14:33;14.90;98.80
7654;DHT22;3869;48.406;10.774;2023-05-18T15:17:01;14.90;99.00
7654;DHT22;3869;48.406;10.774;2023-05-18T15:19:29;14.90;98.80
7654;DHT22;3869;48.406;10.774;2023-05-18T15:21:57;15.00;98.90
7654;DHT22;3869;48.406;10.774;2023-05-18T15:24:26;15.00;99.00
7654;DHT22;3869;48.406;10.774;2023-05-18T15:26:54;14.90;98.90
7654;DHT22;3869;48.406;10.774;2023-05-18T15:29:22;14.90;98.90
7654;DHT22;3869;48.406;10.774;2023-05-18T15:31:50;14.90;98.90
7654;DHT22;3869;48.406;10.774;2023-05-18T15:34:20;14.80;98.90
7654;DHT22;3869;48.406;10.774;2023-05-18T15:36:48;14.70;99.20
7654;DHT22;3869;48.406;10.774;2023-05-18T15:39:19;14.70;98.80
7654;DHT22;3869;48.406;10.774;2023-05-18T15:41:48;14.50;99.00
7654;DHT22;3869;48.406;10.774;2023-05-18T15:44:16;14.50;99.30
7654;DHT22;3869;48.406;10.774;2023-05-18T15:46:44;14.50;99.30
7654;DHT22;3869;48.406;10.774;2023-05-18T15:49:12;14.40;99.20
7654;DHT22;3869;48.406;10.774;2023-05-18T15:51:40;14.30;99.40
7654;DHT22;3869;48.406;10.774;2023-05-18T15:54:08;14.20;99.60
7654;DHT22;3869;48.406;10.774;2023-05-18T15:56:36;14.10;99.70
7654;DHT22;3869;48.406;10.774;2023-05-18T15:59:05;14.10;99.90
7654;DHT22;3869;48.406;10.774;2023-05-18T16:01:34;14.10;99.90
7654;DHT22;3869;48.406;10.774;2023-05-18T16:04:02;14.10;99.90
7654;DHT22;3869;48.406;10.774;2023-05-18T16:06:31;14.10;99.90